Řízení letového provozu České republiky
Letiste: LKKB Aktualizace: 25.09.2016 06:06:12  UTC
 METAR LKKB 25.09. 06:00 ...
METAR LKKB 250600Z 00000KT CAVOK 08/07 Q1024 NOSIG=
 TAF LKKB 25.09. 05:00 COR
TAF COR LKKB 250500Z 2506/2606 2506/2606 VRB02KT CAVOK      TEMPO 2508/2520 08006KT=